Pagrindinis puslapis
METAR-TAF:

METAR-TAF

Oro uostai :

Valdosta Regional Airport

Valdosta, Georgia, Jungtinės Amerikos Valstijos

platuma: 30-47N, ilguma: 083-17W, Aukštis: 62 m

Dabartinis oras

Ataskaita buvo paskelbta 29 minutes, ne 17:53 UTC
Ramus vėjas
Temperatūra 23°C
Drėgmė 36%
Slėgis 1014 hPa
Matomumas: 16.1 km
Giedras dangus

METAR: KVLD 171753Z 00000KT 10SM CLR 23/07 A2994 RMK AO2 SLP147 T02280067 10233 20111 58022

Laikas: 14:22 (18:22 UTC)

Prognozė

Ataskaita buvo paskelbta 1 valandą ir 2 minutes, ne 17:20 UTC
Prognozė galioja nuo 17 metu 18 UTC su 18 metu 18 UTC
Vėjas 4 kt iš Šiaurės/Šiaurės Vakarų
Matomumas: 10 km
Išsisklaidę debesys ne aukštis 25000 ft
Nuo 18 metu 1400 UTC
Vėjas 4 kt iš Rytų
Matomumas: 10 km
Su prošvaistėmis ne aukštis 25000 ft

TAF: KVLD 171720Z 1718/1818 33004KT P6SM SCT250 FM181400 08004KT P6SM BKN250

Orai ataskaitas ir orų prognozės (METAR, TAF).

turimą stotys yra geltonos ir raudonos taškus žemėlapyje.

Perkelti pele per norėdami pamatyti stoties vardą.

Tada spustelėkite, norėdami matyti oro stebėjimo ir prognozės.

Norėdami pakeisti žemėlapį: spustelėkite ant žalios mygtukų su juodo kryžiaus žemyn,; žalią mygtuką su brūkšneliu, jei norite nutolinti; arba žalių rodyklių gretimoms žemėlapius.


METAR-TAF: